sensor_id;sensor_type;location;lat;lon;timestamp;P1;durP1;ratioP1;P2;durP2;ratioP2
9597;SDS011;4837;50.890;4.724;2023-04-03T00:01:14;11.37;;;9.30;;
9597;SDS011;4837;50.890;4.724;2023-04-03T00:03:40;11.87;;;9.97;;
9597;SDS011;4837;50.890;4.724;2023-04-03T00:06:09;12.27;;;9.20;;
9597;SDS011;4837;50.890;4.724;2023-04-03T00:08:36;13.37;;;8.87;;
9597;SDS011;4837;50.890;4.724;2023-04-03T00:11:03;11.97;;;8.97;;
9597;SDS011;4837;50.890;4.724;2023-04-03T00:13:30;13.40;;;9.30;;
9597;SDS011;4837;50.890;4.724;2023-04-03T00:15:56;13.77;;;9.97;;
9597;SDS011;4837;50.890;4.724;2023-04-03T00:18:22;11.97;;;9.40;;
9597;SDS011;4837;50.890;4.724;2023-04-03T00:20:48;12.23;;;9.10;;
9597;SDS011;4837;50.890;4.724;2023-04-03T00:23:16;12.10;;;9.40;;
9597;SDS011;4837;50.890;4.724;2023-04-03T00:25:42;11.07;;;8.80;;
9597;SDS011;4837;50.890;4.724;2023-04-03T00:28:09;10.73;;;9.27;;
9597;SDS011;4837;50.890;4.724;2023-04-03T00:30:35;9.93;;;8.57;;
9597;SDS011;4837;50.890;4.724;2023-04-03T00:33:01;12.47;;;8.93;;
9597;SDS011;4837;50.890;4.724;2023-04-03T00:35:28;9.77;;;8.00;;
9597;SDS011;4837;50.890;4.724;2023-04-03T00:37:55;9.90;;;8.30;;
9597;SDS011;4837;50.890;4.724;2023-04-03T00:40:23;12.70;;;8.93;;
9597;SDS011;4837;50.890;4.724;2023-04-03T00:42:51;12.10;;;8.60;;
9597;SDS011;4837;50.890;4.724;2023-04-03T00:47:43;13.73;;;9.37;;
9597;SDS011;4837;50.890;4.724;2023-04-03T00:50:10;10.47;;;8.40;;
9597;SDS011;4837;50.890;4.724;2023-04-03T00:52:36;9.57;;;8.30;;
9597;SDS011;4837;50.890;4.724;2023-04-03T00:55:04;10.53;;;8.80;;
9597;SDS011;4837;50.890;4.724;2023-04-03T00:57:31;11.43;;;9.23;;
9597;SDS011;4837;50.890;4.724;2023-04-03T00:59:59;11.37;;;9.50;;
9597;SDS011;4837;50.890;4.724;2023-04-03T01:02:26;11.27;;;8.80;;
9597;SDS011;4837;50.890;4.724;2023-04-03T01:04:52;10.63;;;8.70;;
9597;SDS011;4837;50.890;4.724;2023-04-03T01:07:20;10.60;;;7.77;;
9597;SDS011;4837;50.890;4.724;2023-04-03T01:09:47;11.07;;;8.30;;
9597;SDS011;4837;50.890;4.724;2023-04-03T01:14:42;11.07;;;8.60;;
9597;SDS011;4837;50.890;4.724;2023-04-03T01:22:48;9.83;;;7.60;;
9597;SDS011;4837;50.890;4.724;2023-04-03T01:25:18;11.33;;;8.40;;
9597;SDS011;4837;50.890;4.724;2023-04-03T01:27:45;11.20;;;7.87;;
9597;SDS011;4837;50.890;4.724;2023-04-03T01:30:11;8.97;;;8.07;;
9597;SDS011;4837;50.890;4.724;2023-04-03T01:32:38;10.30;;;7.80;;
9597;SDS011;4837;50.890;4.724;2023-04-03T01:35:06;9.43;;;7.63;;
9597;SDS011;4837;50.890;4.724;2023-04-03T01:37:33;9.03;;;7.10;;
9597;SDS011;4837;50.890;4.724;2023-04-03T01:39:59;9.93;;;7.43;;
9597;SDS011;4837;50.890;4.724;2023-04-03T01:42:25;8.60;;;6.70;;
9597;SDS011;4837;50.890;4.724;2023-04-03T01:44:51;9.77;;;7.63;;
9597;SDS011;4837;50.890;4.724;2023-04-03T01:47:17;9.50;;;7.87;;
9597;SDS011;4837;50.890;4.724;2023-04-03T01:49:43;10.20;;;7.30;;
9597;SDS011;4837;50.890;4.724;2023-04-03T01:52:10;9.67;;;7.77;;
9597;SDS011;4837;50.890;4.724;2023-04-03T01:54:36;8.57;;;7.33;;
9597;SDS011;4837;50.890;4.724;2023-04-03T01:57:02;12.10;;;7.97;;
9597;SDS011;4837;50.890;4.724;2023-04-03T01:59:28;9.77;;;6.77;;
9597;SDS011;4837;50.890;4.724;2023-04-03T02:01:54;9.00;;;7.10;;
9597;SDS011;4837;50.890;4.724;2023-04-03T02:04:20;7.70;;;6.70;;
9597;SDS011;4837;50.890;4.724;2023-04-03T02:06:47;8.57;;;7.07;;
9597;SDS011;4837;50.890;4.724;2023-04-03T02:09:13;8.80;;;6.73;;
9597;SDS011;4837;50.890;4.724;2023-04-03T02:11:39;12.73;;;6.80;;
9597;SDS011;4837;50.890;4.724;2023-04-03T02:14:05;8.83;;;6.90;;
9597;SDS011;4837;50.890;4.724;2023-04-03T02:16:31;7.93;;;6.67;;
9597;SDS011;4837;50.890;4.724;2023-04-03T02:18:57;10.93;;;6.93;;
9597;SDS011;4837;50.890;4.724;2023-04-03T02:21:23;10.13;;;6.73;;
9597;SDS011;4837;50.890;4.724;2023-04-03T02:23:50;8.93;;;6.43;;
9597;SDS011;4837;50.890;4.724;2023-04-03T02:26:16;8.43;;;6.87;;
9597;SDS011;4837;50.890;4.724;2023-04-03T02:28:43;16.00;;;7.37;;
9597;SDS011;4837;50.890;4.724;2023-04-03T02:31:09;10.53;;;7.30;;
9597;SDS011;4837;50.890;4.724;2023-04-03T02:33:36;9.77;;;6.67;;
9597;SDS011;4837;50.890;4.724;2023-04-03T02:36:03;9.00;;;7.17;;
9597;SDS011;4837;50.890;4.724;2023-04-03T02:38:29;10.33;;;7.50;;
9597;SDS011;4837;50.890;4.724;2023-04-03T02:41:05;8.77;;;6.80;;
9597;SDS011;4837;50.890;4.724;2023-04-03T02:43:32;10.87;;;7.40;;
9597;SDS011;4837;50.890;4.724;2023-04-03T02:45:58;8.97;;;7.23;;
9597;SDS011;4837;50.890;4.724;2023-04-03T02:48:24;8.23;;;7.23;;
9597;SDS011;4837;50.890;4.724;2023-04-03T02:50:51;8.63;;;7.10;;
9597;SDS011;4837;50.890;4.724;2023-04-03T02:53:17;9.70;;;7.50;;
9597;SDS011;4837;50.890;4.724;2023-04-03T02:55:44;12.60;;;8.67;;
9597;SDS011;4837;50.890;4.724;2023-04-03T02:58:10;10.13;;;7.77;;
9597;SDS011;4837;50.890;4.724;2023-04-03T03:00:36;9.23;;;7.30;;
9597;SDS011;4837;50.890;4.724;2023-04-03T03:03:03;13.87;;;8.00;;
9597;SDS011;4837;50.890;4.724;2023-04-03T03:05:29;11.00;;;7.57;;
9597;SDS011;4837;50.890;4.724;2023-04-03T03:07:55;10.07;;;7.67;;
9597;SDS011;4837;50.890;4.724;2023-04-03T03:10:21;10.10;;;8.23;;
9597;SDS011;4837;50.890;4.724;2023-04-03T03:12:48;9.67;;;7.80;;
9597;SDS011;4837;50.890;4.724;2023-04-03T03:15:14;11.83;;;8.10;;
9597;SDS011;4837;50.890;4.724;2023-04-03T03:17:42;12.30;;;8.83;;
9597;SDS011;4837;50.890;4.724;2023-04-03T03:20:08;10.13;;;8.80;;
9597;SDS011;4837;50.890;4.724;2023-04-03T03:22:35;12.80;;;8.13;;
9597;SDS011;4837;50.890;4.724;2023-04-03T03:25:01;11.30;;;8.70;;
9597;SDS011;4837;50.890;4.724;2023-04-03T03:27:27;12.70;;;8.50;;
9597;SDS011;4837;50.890;4.724;2023-04-03T03:29:54;13.67;;;10.07;;
9597;SDS011;4837;50.890;4.724;2023-04-03T03:32:20;13.63;;;9.27;;
9597;SDS011;4837;50.890;4.724;2023-04-03T03:34:46;13.10;;;9.83;;
9597;SDS011;4837;50.890;4.724;2023-04-03T03:37:13;11.77;;;9.97;;
9597;SDS011;4837;50.890;4.724;2023-04-03T03:39:39;13.07;;;10.37;;
9597;SDS011;4837;50.890;4.724;2023-04-03T03:42:05;14.07;;;11.20;;
9597;SDS011;4837;50.890;4.724;2023-04-03T03:44:31;13.90;;;10.53;;
9597;SDS011;4837;50.890;4.724;2023-04-03T03:46:57;14.50;;;10.83;;
9597;SDS011;4837;50.890;4.724;2023-04-03T03:49:23;15.07;;;10.33;;
9597;SDS011;4837;50.890;4.724;2023-04-03T03:51:50;11.57;;;10.30;;
9597;SDS011;4837;50.890;4.724;2023-04-03T03:54:16;12.93;;;10.27;;
9597;SDS011;4837;50.890;4.724;2023-04-03T03:56:42;13.53;;;10.37;;
9597;SDS011;4837;50.890;4.724;2023-04-03T03:59:11;12.93;;;9.87;;
9597;SDS011;4837;50.890;4.724;2023-04-03T04:01:37;11.33;;;9.73;;
9597;SDS011;4837;50.890;4.724;2023-04-03T04:04:04;12.77;;;9.70;;
9597;SDS011;4837;50.890;4.724;2023-04-03T04:06:30;11.57;;;10.17;;
9597;SDS011;4837;50.890;4.724;2023-04-03T04:08:56;14.13;;;9.87;;
9597;SDS011;4837;50.890;4.724;2023-04-03T04:11:22;11.87;;;9.90;;
9597;SDS011;4837;50.890;4.724;2023-04-03T04:13:49;14.73;;;11.43;;
9597;SDS011;4837;50.890;4.724;2023-04-03T04:16:15;12.10;;;10.03;;
9597;SDS011;4837;50.890;4.724;2023-04-03T04:18:41;15.47;;;10.50;;
9597;SDS011;4837;50.890;4.724;2023-04-03T04:21:07;13.23;;;10.17;;
9597;SDS011;4837;50.890;4.724;2023-04-03T04:23:33;15.30;;;10.80;;
9597;SDS011;4837;50.890;4.724;2023-04-03T04:25:59;12.87;;;10.60;;
9597;SDS011;4837;50.890;4.724;2023-04-03T04:28:25;13.53;;;10.20;;
9597;SDS011;4837;50.890;4.724;2023-04-03T04:30:51;11.43;;;10.07;;
9597;SDS011;4837;50.890;4.724;2023-04-03T04:33:18;14.53;;;10.83;;
9597;SDS011;4837;50.890;4.724;2023-04-03T04:35:46;12.93;;;10.63;;
9597;SDS011;4837;50.890;4.724;2023-04-03T04:38:13;13.77;;;10.90;;
9597;SDS011;4837;50.890;4.724;2023-04-03T04:40:39;14.00;;;10.70;;
9597;SDS011;4837;50.890;4.724;2023-04-03T04:43:06;11.90;;;10.60;;
9597;SDS011;4837;50.890;4.724;2023-04-03T04:45:32;18.80;;;13.17;;
9597;SDS011;4837;50.890;4.724;2023-04-03T04:47:58;14.23;;;10.90;;
9597;SDS011;4837;50.890;4.724;2023-04-03T04:50:25;13.10;;;11.10;;
9597;SDS011;4837;50.890;4.724;2023-04-03T04:52:51;13.87;;;11.10;;
9597;SDS011;4837;50.890;4.724;2023-04-03T04:55:17;15.37;;;11.63;;
9597;SDS011;4837;50.890;4.724;2023-04-03T04:57:43;14.50;;;11.03;;
9597;SDS011;4837;50.890;4.724;2023-04-03T05:00:09;17.10;;;11.27;;
9597;SDS011;4837;50.890;4.724;2023-04-03T05:02:36;13.80;;;10.70;;
9597;SDS011;4837;50.890;4.724;2023-04-03T05:05:02;16.07;;;11.47;;
9597;SDS011;4837;50.890;4.724;2023-04-03T05:07:29;14.57;;;11.23;;
9597;SDS011;4837;50.890;4.724;2023-04-03T05:09:55;17.30;;;11.13;;
9597;SDS011;4837;50.890;4.724;2023-04-03T05:12:21;15.53;;;11.67;;
9597;SDS011;4837;50.890;4.724;2023-04-03T05:14:47;13.93;;;11.30;;
9597;SDS011;4837;50.890;4.724;2023-04-03T05:17:13;14.17;;;11.63;;
9597;SDS011;4837;50.890;4.724;2023-04-03T05:19:39;15.93;;;11.77;;
9597;SDS011;4837;50.890;4.724;2023-04-03T05:22:05;17.57;;;11.73;;
9597;SDS011;4837;50.890;4.724;2023-04-03T05:24:31;13.90;;;11.57;;
9597;SDS011;4837;50.890;4.724;2023-04-03T05:26:58;16.17;;;12.03;;
9597;SDS011;4837;50.890;4.724;2023-04-03T05:29:24;16.13;;;12.13;;
9597;SDS011;4837;50.890;4.724;2023-04-03T05:31:50;18.20;;;11.67;;
9597;SDS011;4837;50.890;4.724;2023-04-03T05:34:16;15.57;;;11.37;;
9597;SDS011;4837;50.890;4.724;2023-04-03T05:36:42;17.17;;;13.10;;
9597;SDS011;4837;50.890;4.724;2023-04-03T05:39:09;14.90;;;11.43;;
9597;SDS011;4837;50.890;4.724;2023-04-03T05:41:35;13.77;;;11.43;;
9597;SDS011;4837;50.890;4.724;2023-04-03T05:44:01;14.10;;;11.10;;
9597;SDS011;4837;50.890;4.724;2023-04-03T05:46:27;15.57;;;11.20;;
9597;SDS011;4837;50.890;4.724;2023-04-03T05:48:54;13.37;;;11.27;;
9597;SDS011;4837;50.890;4.724;2023-04-03T05:51:23;12.23;;;11.00;;
9597;SDS011;4837;50.890;4.724;2023-04-03T05:53:55;15.57;;;11.10;;
9597;SDS011;4837;50.890;4.724;2023-04-03T05:56:22;15.83;;;12.30;;
9597;SDS011;4837;50.890;4.724;2023-04-03T05:58:48;16.33;;;11.10;;
9597;SDS011;4837;50.890;4.724;2023-04-03T06:01:14;19.93;;;12.73;;
9597;SDS011;4837;50.890;4.724;2023-04-03T06:03:41;16.80;;;12.67;;
9597;SDS011;4837;50.890;4.724;2023-04-03T06:06:07;16.80;;;12.40;;
9597;SDS011;4837;50.890;4.724;2023-04-03T06:08:33;16.37;;;12.57;;
9597;SDS011;4837;50.890;4.724;2023-04-03T06:11:00;17.17;;;13.30;;
9597;SDS011;4837;50.890;4.724;2023-04-03T06:13:27;18.27;;;13.23;;
9597;SDS011;4837;50.890;4.724;2023-04-03T06:15:53;16.30;;;13.37;;
9597;SDS011;4837;50.890;4.724;2023-04-03T06:18:20;18.27;;;14.87;;
9597;SDS011;4837;50.890;4.724;2023-04-03T06:20:46;17.23;;;13.63;;
9597;SDS011;4837;50.890;4.724;2023-04-03T06:23:12;18.73;;;14.07;;
9597;SDS011;4837;50.890;4.724;2023-04-03T06:25:38;19.30;;;15.30;;
9597;SDS011;4837;50.890;4.724;2023-04-03T06:28:05;20.57;;;15.43;;
9597;SDS011;4837;50.890;4.724;2023-04-03T06:30:34;17.93;;;14.83;;
9597;SDS011;4837;50.890;4.724;2023-04-03T06:33:00;19.60;;;14.57;;
9597;SDS011;4837;50.890;4.724;2023-04-03T06:35:26;18.67;;;14.77;;
9597;SDS011;4837;50.890;4.724;2023-04-03T06:37:53;25.10;;;14.80;;
9597;SDS011;4837;50.890;4.724;2023-04-03T06:40:21;17.03;;;14.47;;
9597;SDS011;4837;50.890;4.724;2023-04-03T06:42:47;17.93;;;14.00;;
9597;SDS011;4837;50.890;4.724;2023-04-03T06:45:13;14.70;;;13.07;;
9597;SDS011;4837;50.890;4.724;2023-04-03T06:47:40;15.70;;;13.53;;
9597;SDS011;4837;50.890;4.724;2023-04-03T06:50:07;15.23;;;13.60;;
9597;SDS011;4837;50.890;4.724;2023-04-03T06:52:34;16.60;;;12.83;;
9597;SDS011;4837;50.890;4.724;2023-04-03T06:55:00;14.93;;;12.47;;
9597;SDS011;4837;50.890;4.724;2023-04-03T06:57:26;13.93;;;12.37;;
9597;SDS011;4837;50.890;4.724;2023-04-03T06:59:52;19.90;;;12.30;;
9597;SDS011;4837;50.890;4.724;2023-04-03T07:02:18;15.83;;;11.60;;
9597;SDS011;4837;50.890;4.724;2023-04-03T07:04:45;14.63;;;11.27;;
9597;SDS011;4837;50.890;4.724;2023-04-03T07:07:12;12.40;;;10.70;;
9597;SDS011;4837;50.890;4.724;2023-04-03T07:09:38;12.17;;;10.27;;
9597;SDS011;4837;50.890;4.724;2023-04-03T07:12:04;12.20;;;10.37;;
9597;SDS011;4837;50.890;4.724;2023-04-03T07:14:30;13.47;;;10.10;;
9597;SDS011;4837;50.890;4.724;2023-04-03T07:16:56;11.10;;;9.60;;
9597;SDS011;4837;50.890;4.724;2023-04-03T07:19:22;14.60;;;10.07;;
9597;SDS011;4837;50.890;4.724;2023-04-03T07:21:52;12.03;;;9.30;;
9597;SDS011;4837;50.890;4.724;2023-04-03T07:24:18;12.67;;;10.40;;
9597;SDS011;4837;50.890;4.724;2023-04-03T07:26:44;10.93;;;9.37;;
9597;SDS011;4837;50.890;4.724;2023-04-03T07:29:10;10.47;;;8.40;;
9597;SDS011;4837;50.890;4.724;2023-04-03T07:31:40;11.33;;;8.77;;
9597;SDS011;4837;50.890;4.724;2023-04-03T07:34:06;11.47;;;9.27;;
9597;SDS011;4837;50.890;4.724;2023-04-03T07:36:32;11.47;;;8.70;;
9597;SDS011;4837;50.890;4.724;2023-04-03T07:38:58;10.00;;;8.70;;
9597;SDS011;4837;50.890;4.724;2023-04-03T07:41:24;8.90;;;7.50;;
9597;SDS011;4837;50.890;4.724;2023-04-03T07:43:51;9.32;;;6.95;;
9597;SDS011;4837;50.890;4.724;2023-04-03T07:46:18;6.53;;;5.93;;
9597;SDS011;4837;50.890;4.724;2023-04-03T07:48:45;6.38;;;5.68;;
9597;SDS011;4837;50.890;4.724;2023-04-03T07:51:11;6.40;;;5.32;;
9597;SDS011;4837;50.890;4.724;2023-04-03T07:53:38;5.63;;;4.75;;
9597;SDS011;4837;50.890;4.724;2023-04-03T07:56:04;8.15;;;4.63;;
9597;SDS011;4837;50.890;4.724;2023-04-03T07:58:30;7.65;;;5.07;;
9597;SDS011;4837;50.890;4.724;2023-04-03T08:00:56;8.02;;;4.97;;
9597;SDS011;4837;50.890;4.724;2023-04-03T08:03:22;6.07;;;4.38;;
9597;SDS011;4837;50.890;4.724;2023-04-03T08:05:49;5.88;;;4.28;;
9597;SDS011;4837;50.890;4.724;2023-04-03T08:08:17;8.70;;;4.63;;
9597;SDS011;4837;50.890;4.724;2023-04-03T08:10:45;8.52;;;4.25;;
9597;SDS011;4837;50.890;4.724;2023-04-03T08:13:13;7.70;;;5.18;;
9597;SDS011;4837;50.890;4.724;2023-04-03T08:15:39;5.10;;;4.20;;
9597;SDS011;4837;50.890;4.724;2023-04-03T08:18:06;8.68;;;4.47;;
9597;SDS011;4837;50.890;4.724;2023-04-03T08:20:32;6.43;;;4.30;;
9597;SDS011;4837;50.890;4.724;2023-04-03T08:22:58;6.40;;;4.30;;
9597;SDS011;4837;50.890;4.724;2023-04-03T08:25:24;8.95;;;4.60;;
9597;SDS011;4837;50.890;4.724;2023-04-03T08:27:50;6.10;;;4.45;;
9597;SDS011;4837;50.890;4.724;2023-04-03T08:30:17;4.95;;;3.65;;
9597;SDS011;4837;50.890;4.724;2023-04-03T08:32:43;5.72;;;4.05;;
9597;SDS011;4837;50.890;4.724;2023-04-03T08:35:10;6.50;;;4.35;;
9597;SDS011;4837;50.890;4.724;2023-04-03T08:37:36;5.85;;;3.70;;
9597;SDS011;4837;50.890;4.724;2023-04-03T08:40:03;5.47;;;3.28;;
9597;SDS011;4837;50.890;4.724;2023-04-03T08:42:40;9.02;;;4.03;;
9597;SDS011;4837;50.890;4.724;2023-04-03T08:45:10;4.47;;;3.38;;
9597;SDS011;4837;50.890;4.724;2023-04-03T08:47:38;4.90;;;2.88;;
9597;SDS011;4837;50.890;4.724;2023-04-03T08:50:16;5.28;;;3.22;;
9597;SDS011;4837;50.890;4.724;2023-04-03T08:52:51;5.40;;;3.33;;
9597;SDS011;4837;50.890;4.724;2023-04-03T08:55:22;4.85;;;2.72;;
9597;SDS011;4837;50.890;4.724;2023-04-03T08:57:51;4.18;;;3.00;;
9597;SDS011;4837;50.890;4.724;2023-04-03T09:00:21;5.45;;;3.33;;
9597;SDS011;4837;50.890;4.724;2023-04-03T09:02:51;4.20;;;2.70;;
9597;SDS011;4837;50.890;4.724;2023-04-03T09:11:11;4.35;;;2.70;;
9597;SDS011;4837;50.890;4.724;2023-04-03T09:16:15;5.85;;;2.85;;
9597;SDS011;4837;50.890;4.724;2023-04-03T09:18:45;4.97;;;2.63;;
9597;SDS011;4837;50.890;4.724;2023-04-03T09:21:19;5.65;;;2.60;;
9597;SDS011;4837;50.890;4.724;2023-04-03T09:23:50;5.47;;;2.63;;
9597;SDS011;4837;50.890;4.724;2023-04-03T09:26:18;4.03;;;2.40;;
9597;SDS011;4837;50.890;4.724;2023-04-03T09:28:45;3.85;;;2.70;;
9597;SDS011;4837;50.890;4.724;2023-04-03T09:33:44;3.80;;;2.53;;
9597;SDS011;4837;50.890;4.724;2023-04-03T09:36:11;4.22;;;2.80;;
9597;SDS011;4837;50.890;4.724;2023-04-03T09:38:37;6.32;;;2.58;;
9597;SDS011;4837;50.890;4.724;2023-04-03T09:41:05;4.82;;;2.95;;
9597;SDS011;4837;50.890;4.724;2023-04-03T09:43:33;3.67;;;2.65;;
9597;SDS011;4837;50.890;4.724;2023-04-03T09:48:51;5.93;;;3.03;;
9597;SDS011;4837;50.890;4.724;2023-04-03T09:51:17;4.82;;;2.60;;
9597;SDS011;4837;50.890;4.724;2023-04-03T09:53:44;5.35;;;2.95;;
9597;SDS011;4837;50.890;4.724;2023-04-03T09:58:44;5.95;;;2.97;;
9597;SDS011;4837;50.890;4.724;2023-04-03T10:01:28;5.32;;;2.38;;
9597;SDS011;4837;50.890;4.724;2023-04-03T10:04:17;4.75;;;2.67;;
9597;SDS011;4837;50.890;4.724;2023-04-03T10:09:25;5.18;;;2.03;;
9597;SDS011;4837;50.890;4.724;2023-04-03T10:14:21;2.88;;;2.20;;
9597;SDS011;4837;50.890;4.724;2023-04-03T10:16:48;4.25;;;2.45;;
9597;SDS011;4837;50.890;4.724;2023-04-03T10:27:11;3.13;;;2.00;;
9597;SDS011;4837;50.890;4.724;2023-04-03T10:29:45;3.55;;;2.13;;
9597;SDS011;4837;50.890;4.724;2023-04-03T10:34:45;3.33;;;2.35;;
9597;SDS011;4837;50.890;4.724;2023-04-03T10:45:02;6.57;;;1.90;;
9597;SDS011;4837;50.890;4.724;2023-04-03T10:58:03;2.75;;;1.73;;
9597;SDS011;4837;50.890;4.724;2023-04-03T11:00:39;2.42;;;1.65;;
9597;SDS011;4837;50.890;4.724;2023-04-03T11:03:10;3.38;;;1.50;;
9597;SDS011;4837;50.890;4.724;2023-04-03T11:10:45;2.47;;;1.70;;
9597;SDS011;4837;50.890;4.724;2023-04-03T11:15:48;2.42;;;1.30;;
9597;SDS011;4837;50.890;4.724;2023-04-03T11:18:17;2.55;;;1.50;;
9597;SDS011;4837;50.890;4.724;2023-04-03T11:20:48;4.20;;;1.58;;
9597;SDS011;4837;50.890;4.724;2023-04-03T11:23:21;2.38;;;1.20;;
9597;SDS011;4837;50.890;4.724;2023-04-03T11:25:49;3.13;;;1.52;;
9597;SDS011;4837;50.890;4.724;2023-04-03T11:28:17;6.70;;;2.45;;
9597;SDS011;4837;50.890;4.724;2023-04-03T11:33:28;2.65;;;1.60;;
9597;SDS011;4837;50.890;4.724;2023-04-03T11:35:59;1.98;;;1.65;;
9597;SDS011;4837;50.890;4.724;2023-04-03T11:38:27;3.42;;;1.50;;
9597;SDS011;4837;50.890;4.724;2023-04-03T11:40:55;7.22;;;1.92;;
9597;SDS011;4837;50.890;4.724;2023-04-03T11:43:23;3.47;;;1.95;;
9597;SDS011;4837;50.890;4.724;2023-04-03T11:50:58;3.75;;;2.00;;
9597;SDS011;4837;50.890;4.724;2023-04-03T11:53:25;3.97;;;1.67;;
9597;SDS011;4837;50.890;4.724;2023-04-03T11:55:56;3.03;;;1.55;;
9597;SDS011;4837;50.890;4.724;2023-04-03T11:58:24;1.80;;;1.25;;
9597;SDS011;4837;50.890;4.724;2023-04-03T12:00:52;3.10;;;1.65;;
9597;SDS011;4837;50.890;4.724;2023-04-03T12:05:52;1.80;;;1.50;;
9597;SDS011;4837;50.890;4.724;2023-04-03T12:08:24;4.00;;;1.52;;
9597;SDS011;4837;50.890;4.724;2023-04-03T12:13:35;2.78;;;1.60;;
9597;SDS011;4837;50.890;4.724;2023-04-03T12:16:02;2.92;;;1.55;;
9597;SDS011;4837;50.890;4.724;2023-04-03T12:21:07;2.33;;;1.45;;
9597;SDS011;4837;50.890;4.724;2023-04-03T12:23:54;3.47;;;1.50;;
9597;SDS011;4837;50.890;4.724;2023-04-03T12:26:21;2.20;;;1.27;;
9597;SDS011;4837;50.890;4.724;2023-04-03T12:28:48;2.33;;;1.40;;
9597;SDS011;4837;50.890;4.724;2023-04-03T12:31:14;4.53;;;1.30;;
9597;SDS011;4837;50.890;4.724;2023-04-03T12:41:43;2.05;;;1.40;;
9597;SDS011;4837;50.890;4.724;2023-04-03T12:46:42;2.88;;;1.33;;
9597;SDS011;4837;50.890;4.724;2023-04-03T12:52:05;4.30;;;1.77;;
9597;SDS011;4837;50.890;4.724;2023-04-03T12:54:34;2.33;;;1.40;;
9597;SDS011;4837;50.890;4.724;2023-04-03T12:57:11;4.90;;;1.67;;
9597;SDS011;4837;50.890;4.724;2023-04-03T12:59:37;2.72;;;1.52;;
9597;SDS011;4837;50.890;4.724;2023-04-03T13:02:10;3.60;;;1.60;;
9597;SDS011;4837;50.890;4.724;2023-04-03T13:04:41;2.45;;;2.00;;
9597;SDS011;4837;50.890;4.724;2023-04-03T13:07:17;3.55;;;1.95;;
9597;SDS011;4837;50.890;4.724;2023-04-03T13:09:44;2.42;;;1.70;;
9597;SDS011;4837;50.890;4.724;2023-04-03T13:12:20;4.90;;;1.88;;
9597;SDS011;4837;50.890;4.724;2023-04-03T13:14:57;2.88;;;1.95;;
9597;SDS011;4837;50.890;4.724;2023-04-03T13:17:25;2.70;;;1.88;;
9597;SDS011;4837;50.890;4.724;2023-04-03T13:19:52;2.28;;;1.50;;
9597;SDS011;4837;50.890;4.724;2023-04-03T13:24:54;3.38;;;1.60;;
9597;SDS011;4837;50.890;4.724;2023-04-03T13:27:21;3.10;;;1.67;;
9597;SDS011;4837;50.890;4.724;2023-04-03T13:29:54;2.28;;;1.45;;
9597;SDS011;4837;50.890;4.724;2023-04-03T13:32:23;3.05;;;1.52;;
9597;SDS011;4837;50.890;4.724;2023-04-03T13:34:50;2.75;;;1.50;;
9597;SDS011;4837;50.890;4.724;2023-04-03T13:37:23;2.05;;;1.50;;
9597;SDS011;4837;50.890;4.724;2023-04-03T13:39:57;3.88;;;1.77;;
9597;SDS011;4837;50.890;4.724;2023-04-03T13:42:25;2.33;;;1.55;;
9597;SDS011;4837;50.890;4.724;2023-04-03T13:48:08;2.15;;;1.30;;
9597;SDS011;4837;50.890;4.724;2023-04-03T13:50:48;3.58;;;1.60;;
9597;SDS011;4837;50.890;4.724;2023-04-03T13:53:15;2.17;;;1.52;;
9597;SDS011;4837;50.890;4.724;2023-04-03T13:58:30;4.93;;;1.35;;
9597;SDS011;4837;50.890;4.724;2023-04-03T14:01:01;1.52;;;1.38;;
9597;SDS011;4837;50.890;4.724;2023-04-03T14:03:54;3.33;;;1.42;;
9597;SDS011;4837;50.890;4.724;2023-04-03T14:06:21;4.43;;;1.70;;
9597;SDS011;4837;50.890;4.724;2023-04-03T14:08:47;3.83;;;1.55;;
9597;SDS011;4837;50.890;4.724;2023-04-03T14:11:21;2.30;;;1.60;;
9597;SDS011;4837;50.890;4.724;2023-04-03T14:13:48;2.60;;;1.50;;
9597;SDS011;4837;50.890;4.724;2023-04-03T14:16:17;3.65;;;1.50;;
9597;SDS011;4837;50.890;4.724;2023-04-03T14:18:44;1.60;;;1.27;;
9597;SDS011;4837;50.890;4.724;2023-04-03T14:21:11;3.67;;;1.50;;
9597;SDS011;4837;50.890;4.724;2023-04-03T14:23:38;2.97;;;1.45;;
9597;SDS011;4837;50.890;4.724;2023-04-03T14:26:08;2.60;;;1.65;;
9597;SDS011;4837;50.890;4.724;2023-04-03T14:28:34;2.75;;;1.80;;
9597;SDS011;4837;50.890;4.724;2023-04-03T14:31:00;2.25;;;1.50;;
9597;SDS011;4837;50.890;4.724;2023-04-03T14:33:27;3.15;;;1.70;;
9597;SDS011;4837;50.890;4.724;2023-04-03T14:35:56;3.55;;;1.70;;
9597;SDS011;4837;50.890;4.724;2023-04-03T14:38:29;3.67;;;1.60;;
9597;SDS011;4837;50.890;4.724;2023-04-03T14:40:55;3.33;;;1.75;;
9597;SDS011;4837;50.890;4.724;2023-04-03T14:43:22;2.20;;;1.67;;
9597;SDS011;4837;50.890;4.724;2023-04-03T14:45:49;3.83;;;1.70;;
9597;SDS011;4837;50.890;4.724;2023-04-03T14:48:23;2.83;;;1.67;;
9597;SDS011;4837;50.890;4.724;2023-04-03T14:50:50;2.75;;;2.00;;
9597;SDS011;4837;50.890;4.724;2023-04-03T14:53:17;2.65;;;1.83;;
9597;SDS011;4837;50.890;4.724;2023-04-03T14:55:48;2.95;;;1.70;;
9597;SDS011;4837;50.890;4.724;2023-04-03T14:58:15;3.20;;;1.90;;
9597;SDS011;4837;50.890;4.724;2023-04-03T15:00:41;3.80;;;1.85;;
9597;SDS011;4837;50.890;4.724;2023-04-03T15:03:12;4.88;;;2.10;;
9597;SDS011;4837;50.890;4.724;2023-04-03T15:05:38;3.13;;;1.80;;
9597;SDS011;4837;50.890;4.724;2023-04-03T15:08:04;4.43;;;2.10;;
9597;SDS011;4837;50.890;4.724;2023-04-03T15:10:30;3.17;;;1.98;;
9597;SDS011;4837;50.890;4.724;2023-04-03T15:12:57;3.67;;;1.73;;
9597;SDS011;4837;50.890;4.724;2023-04-03T15:15:24;2.97;;;1.77;;
9597;SDS011;4837;50.890;4.724;2023-04-03T15:17:54;3.92;;;1.45;;
9597;SDS011;4837;50.890;4.724;2023-04-03T15:20:26;3.63;;;2.08;;
9597;SDS011;4837;50.890;4.724;2023-04-03T15:22:52;2.67;;;2.00;;
9597;SDS011;4837;50.890;4.724;2023-04-03T15:25:21;3.30;;;1.80;;
9597;SDS011;4837;50.890;4.724;2023-04-03T15:27:47;4.15;;;2.00;;
9597;SDS011;4837;50.890;4.724;2023-04-03T15:30:14;4.90;;;2.10;;
9597;SDS011;4837;50.890;4.724;2023-04-03T15:32:40;3.33;;;1.85;;
9597;SDS011;4837;50.890;4.724;2023-04-03T15:35:07;3.78;;;2.00;;
9597;SDS011;4837;50.890;4.724;2023-04-03T15:37:33;3.33;;;2.20;;
9597;SDS011;4837;50.890;4.724;2023-04-03T15:39:59;3.17;;;2.15;;
9597;SDS011;4837;50.890;4.724;2023-04-03T15:42:25;3.13;;;1.90;;
9597;SDS011;4837;50.890;4.724;2023-04-03T15:44:51;5.57;;;1.92;;
9597;SDS011;4837;50.890;4.724;2023-04-03T15:47:18;3.72;;;2.10;;
9597;SDS011;4837;50.890;4.724;2023-04-03T15:49:44;3.95;;;2.00;;
9597;SDS011;4837;50.890;4.724;2023-04-03T15:52:10;3.95;;;2.20;;
9597;SDS011;4837;50.890;4.724;2023-04-03T15:54:36;4.20;;;2.00;;
9597;SDS011;4837;50.890;4.724;2023-04-03T15:57:03;4.10;;;2.00;;
9597;SDS011;4837;50.890;4.724;2023-04-03T15:59:29;3.78;;;2.00;;
9597;SDS011;4837;50.890;4.724;2023-04-03T16:01:57;3.88;;;2.05;;
9597;SDS011;4837;50.890;4.724;2023-04-03T16:04:24;3.33;;;1.90;;
9597;SDS011;4837;50.890;4.724;2023-04-03T16:06:50;4.93;;;2.15;;
9597;SDS011;4837;50.890;4.724;2023-04-03T16:09:17;3.38;;;2.35;;
9597;SDS011;4837;50.890;4.724;2023-04-03T16:11:43;3.85;;;2.33;;
9597;SDS011;4837;50.890;4.724;2023-04-03T16:14:10;3.58;;;1.95;;
9597;SDS011;4837;50.890;4.724;2023-04-03T16:16:36;3.38;;;2.00;;
9597;SDS011;4837;50.890;4.724;2023-04-03T16:19:03;3.60;;;1.98;;
9597;SDS011;4837;50.890;4.724;2023-04-03T16:21:30;2.35;;;1.63;;
9597;SDS011;4837;50.890;4.724;2023-04-03T16:23:57;4.00;;;2.15;;
9597;SDS011;4837;50.890;4.724;2023-04-03T16:26:24;5.05;;;2.40;;
9597;SDS011;4837;50.890;4.724;2023-04-03T16:28:51;3.20;;;1.70;;
9597;SDS011;4837;50.890;4.724;2023-04-03T16:31:17;4.47;;;1.67;;
9597;SDS011;4837;50.890;4.724;2023-04-03T16:33:43;2.95;;;2.22;;
9597;SDS011;4837;50.890;4.724;2023-04-03T16:36:10;4.97;;;2.17;;
9597;SDS011;4837;50.890;4.724;2023-04-03T16:38:36;2.35;;;1.70;;
9597;SDS011;4837;50.890;4.724;2023-04-03T16:41:02;4.65;;;1.90;;
9597;SDS011;4837;50.890;4.724;2023-04-03T16:43:33;2.92;;;1.88;;
9597;SDS011;4837;50.890;4.724;2023-04-03T16:46:00;3.92;;;1.95;;
9597;SDS011;4837;50.890;4.724;2023-04-03T16:48:27;4.00;;;2.05;;
9597;SDS011;4837;50.890;4.724;2023-04-03T16:50:54;4.32;;;2.05;;
9597;SDS011;4837;50.890;4.724;2023-04-03T16:53:20;4.13;;;1.70;;